sensor_id;sensor_type;location;lat;lon;timestamp;P1;durP1;ratioP1;P2;durP2;ratioP2
22571;SDS011;11452;53.368;14.658;2022-07-01T00:00:38;17.20;;;15.63;;
22571;SDS011;11452;53.368;14.658;2022-07-01T00:05:44;18.23;;;16.63;;
22571;SDS011;11452;53.368;14.658;2022-07-01T00:10:49;16.77;;;15.37;;
22571;SDS011;11452;53.368;14.658;2022-07-01T00:15:55;16.90;;;15.50;;
22571;SDS011;11452;53.368;14.658;2022-07-01T00:21:02;16.93;;;15.53;;
22571;SDS011;11452;53.368;14.658;2022-07-01T00:26:08;16.47;;;14.97;;
22571;SDS011;11452;53.368;14.658;2022-07-01T00:31:13;16.33;;;14.93;;
22571;SDS011;11452;53.368;14.658;2022-07-01T00:36:19;15.73;;;14.40;;
22571;SDS011;11452;53.368;14.658;2022-07-01T00:41:26;18.20;;;16.60;;
22571;SDS011;11452;53.368;14.658;2022-07-01T00:46:32;16.93;;;15.43;;
22571;SDS011;11452;53.368;14.658;2022-07-01T00:51:38;17.97;;;16.47;;
22571;SDS011;11452;53.368;14.658;2022-07-01T00:56:44;16.87;;;15.37;;
22571;SDS011;11452;53.368;14.658;2022-07-01T01:01:49;17.33;;;15.73;;
22571;SDS011;11452;53.368;14.658;2022-07-01T01:06:56;17.47;;;15.90;;
22571;SDS011;11452;53.368;14.658;2022-07-01T01:12:02;16.67;;;15.17;;
22571;SDS011;11452;53.368;14.658;2022-07-01T01:17:07;18.30;;;16.63;;
22571;SDS011;11452;53.368;14.658;2022-07-01T01:22:15;16.67;;;15.23;;
22571;SDS011;11452;53.368;14.658;2022-07-01T01:27:21;17.10;;;15.53;;
22571;SDS011;11452;53.368;14.658;2022-07-01T01:32:27;17.60;;;15.83;;
22571;SDS011;11452;53.368;14.658;2022-07-01T01:37:33;16.70;;;15.20;;
22571;SDS011;11452;53.368;14.658;2022-07-01T01:42:39;18.87;;;17.13;;
22571;SDS011;11452;53.368;14.658;2022-07-01T01:47:45;21.83;;;19.63;;
22571;SDS011;11452;53.368;14.658;2022-07-01T01:52:51;21.07;;;18.93;;
22571;SDS011;11452;53.368;14.658;2022-07-01T01:57:57;21.47;;;19.37;;
22571;SDS011;11452;53.368;14.658;2022-07-01T02:03:04;21.30;;;19.30;;
22571;SDS011;11452;53.368;14.658;2022-07-01T02:08:10;20.87;;;18.90;;
22571;SDS011;11452;53.368;14.658;2022-07-01T02:13:15;21.73;;;19.70;;
22571;SDS011;11452;53.368;14.658;2022-07-01T02:18:21;22.73;;;18.23;;
22571;SDS011;11452;53.368;14.658;2022-07-01T02:23:27;26.03;;;18.73;;
22571;SDS011;11452;53.368;14.658;2022-07-01T02:28:36;21.27;;;19.07;;
22571;SDS011;11452;53.368;14.658;2022-07-01T02:33:42;20.17;;;18.37;;
22571;SDS011;11452;53.368;14.658;2022-07-01T02:38:47;19.97;;;17.93;;
22571;SDS011;11452;53.368;14.658;2022-07-01T02:43:53;31.47;;;18.37;;
22571;SDS011;11452;53.368;14.658;2022-07-01T02:48:59;46.23;;;18.40;;
22571;SDS011;11452;53.368;14.658;2022-07-01T02:54:04;18.97;;;16.80;;
22571;SDS011;11452;53.368;14.658;2022-07-01T02:59:10;18.70;;;16.83;;
22571;SDS011;11452;53.368;14.658;2022-07-01T03:04:15;20.30;;;16.93;;
22571;SDS011;11452;53.368;14.658;2022-07-01T03:09:22;17.67;;;15.97;;
22571;SDS011;11452;53.368;14.658;2022-07-01T03:14:28;27.60;;;17.87;;
22571;SDS011;11452;53.368;14.658;2022-07-01T03:19:33;17.97;;;16.20;;
22571;SDS011;11452;53.368;14.658;2022-07-01T03:24:39;16.87;;;15.20;;
22571;SDS011;11452;53.368;14.658;2022-07-01T03:29:45;16.20;;;14.37;;
22571;SDS011;11452;53.368;14.658;2022-07-01T03:34:51;15.70;;;14.10;;
22571;SDS011;11452;53.368;14.658;2022-07-01T03:39:57;15.63;;;14.20;;
22571;SDS011;11452;53.368;14.658;2022-07-01T03:45:03;15.53;;;14.13;;
22571;SDS011;11452;53.368;14.658;2022-07-01T03:50:09;15.27;;;14.07;;
22571;SDS011;11452;53.368;14.658;2022-07-01T03:55:15;15.77;;;14.40;;
22571;SDS011;11452;53.368;14.658;2022-07-01T04:00:20;15.67;;;14.37;;
22571;SDS011;11452;53.368;14.658;2022-07-01T04:05:27;15.57;;;14.17;;
22571;SDS011;11452;53.368;14.658;2022-07-01T04:10:33;16.20;;;14.80;;
22571;SDS011;11452;53.368;14.658;2022-07-01T04:15:39;15.13;;;13.80;;
22571;SDS011;11452;53.368;14.658;2022-07-01T04:20:45;15.23;;;14.03;;
22571;SDS011;11452;53.368;14.658;2022-07-01T04:25:52;14.93;;;13.67;;
22571;SDS011;11452;53.368;14.658;2022-07-01T04:30:58;15.30;;;14.00;;
22571;SDS011;11452;53.368;14.658;2022-07-01T04:36:04;14.70;;;13.47;;
22571;SDS011;11452;53.368;14.658;2022-07-01T04:41:10;15.03;;;13.73;;
22571;SDS011;11452;53.368;14.658;2022-07-01T04:46:33;17.90;;;16.45;;
22571;SDS011;11452;53.368;14.658;2022-07-01T04:51:39;16.17;;;14.77;;
22571;SDS011;11452;53.368;14.658;2022-07-01T04:56:46;15.97;;;14.57;;
22571;SDS011;11452;53.368;14.658;2022-07-01T05:01:52;16.77;;;15.27;;
22571;SDS011;11452;53.368;14.658;2022-07-01T05:06:58;17.17;;;15.77;;
22571;SDS011;11452;53.368;14.658;2022-07-01T05:12:04;17.03;;;15.60;;
22571;SDS011;11452;53.368;14.658;2022-07-01T05:17:10;17.87;;;16.47;;
22571;SDS011;11452;53.368;14.658;2022-07-01T05:22:15;20.00;;;18.13;;
22571;SDS011;11452;53.368;14.658;2022-07-01T05:27:21;19.10;;;17.50;;
22571;SDS011;11452;53.368;14.658;2022-07-01T05:32:28;18.73;;;17.10;;
22571;SDS011;11452;53.368;14.658;2022-07-01T05:37:34;20.23;;;18.47;;
22571;SDS011;11452;53.368;14.658;2022-07-01T05:42:39;22.20;;;20.30;;
22571;SDS011;11452;53.368;14.658;2022-07-01T05:47:45;19.90;;;18.30;;
22571;SDS011;11452;53.368;14.658;2022-07-01T05:52:50;21.43;;;19.57;;
22571;SDS011;11452;53.368;14.658;2022-07-01T05:57:57;20.43;;;18.73;;
22571;SDS011;11452;53.368;14.658;2022-07-01T06:03:04;19.23;;;17.53;;
22571;SDS011;11452;53.368;14.658;2022-07-01T06:08:09;20.70;;;18.93;;
22571;SDS011;11452;53.368;14.658;2022-07-01T06:13:15;19.50;;;17.70;;
22571;SDS011;11452;53.368;14.658;2022-07-01T06:18:21;21.10;;;19.30;;
22571;SDS011;11452;53.368;14.658;2022-07-01T06:23:26;20.00;;;18.30;;
22571;SDS011;11452;53.368;14.658;2022-07-01T06:28:32;21.40;;;19.37;;
22571;SDS011;11452;53.368;14.658;2022-07-01T06:33:39;19.33;;;17.70;;
22571;SDS011;11452;53.368;14.658;2022-07-01T06:38:44;20.90;;;18.93;;
22571;SDS011;11452;53.368;14.658;2022-07-01T06:43:50;19.20;;;17.50;;
22571;SDS011;11452;53.368;14.658;2022-07-01T06:48:55;19.97;;;18.23;;
22571;SDS011;11452;53.368;14.658;2022-07-01T06:54:02;19.67;;;17.97;;
22571;SDS011;11452;53.368;14.658;2022-07-01T06:59:07;20.47;;;18.63;;
22571;SDS011;11452;53.368;14.658;2022-07-01T07:04:13;19.23;;;17.53;;
22571;SDS011;11452;53.368;14.658;2022-07-01T07:09:19;18.67;;;17.00;;
22571;SDS011;11452;53.368;14.658;2022-07-01T07:14:27;19.20;;;17.57;;
22571;SDS011;11452;53.368;14.658;2022-07-01T07:19:32;19.67;;;17.97;;
22571;SDS011;11452;53.368;14.658;2022-07-01T07:24:38;20.37;;;18.70;;
22571;SDS011;11452;53.368;14.658;2022-07-01T07:29:45;20.23;;;18.57;;
22571;SDS011;11452;53.368;14.658;2022-07-01T07:34:50;19.80;;;18.20;;
22571;SDS011;11452;53.368;14.658;2022-07-01T07:39:56;20.70;;;18.90;;
22571;SDS011;11452;53.368;14.658;2022-07-01T07:45:02;19.70;;;18.00;;
22571;SDS011;11452;53.368;14.658;2022-07-01T07:50:10;19.67;;;18.10;;
22571;SDS011;11452;53.368;14.658;2022-07-01T07:55:16;19.47;;;17.70;;
22571;SDS011;11452;53.368;14.658;2022-07-01T08:00:22;18.47;;;16.87;;
22571;SDS011;11452;53.368;14.658;2022-07-01T08:05:28;21.03;;;19.07;;
22571;SDS011;11452;53.368;14.658;2022-07-01T08:10:34;20.53;;;18.83;;
22571;SDS011;11452;53.368;14.658;2022-07-01T08:15:40;20.03;;;18.43;;
22571;SDS011;11452;53.368;14.658;2022-07-01T08:20:46;19.80;;;18.13;;
22571;SDS011;11452;53.368;14.658;2022-07-01T08:25:54;19.70;;;17.97;;
22571;SDS011;11452;53.368;14.658;2022-07-01T08:31:00;18.80;;;16.97;;
22571;SDS011;11452;53.368;14.658;2022-07-01T08:36:07;18.83;;;17.23;;
22571;SDS011;11452;53.368;14.658;2022-07-01T08:41:13;18.93;;;17.43;;
22571;SDS011;11452;53.368;14.658;2022-07-01T08:46:21;19.90;;;18.33;;
22571;SDS011;11452;53.368;14.658;2022-07-01T08:51:27;21.97;;;20.07;;
22571;SDS011;11452;53.368;14.658;2022-07-01T08:56:33;22.80;;;20.90;;
22571;SDS011;11452;53.368;14.658;2022-07-01T09:01:45;21.30;;;19.60;;
22571;SDS011;11452;53.368;14.658;2022-07-01T09:06:51;22.65;;;20.75;;
22571;SDS011;11452;53.368;14.658;2022-07-01T09:11:58;19.87;;;18.17;;
22571;SDS011;11452;53.368;14.658;2022-07-01T09:17:05;23.13;;;21.37;;
22571;SDS011;11452;53.368;14.658;2022-07-01T09:22:11;21.53;;;19.60;;
22571;SDS011;11452;53.368;14.658;2022-07-01T09:27:16;16.83;;;15.20;;
22571;SDS011;11452;53.368;14.658;2022-07-01T09:32:22;20.85;;;18.92;;
22571;SDS011;11452;53.368;14.658;2022-07-01T09:37:28;20.88;;;18.98;;
22571;SDS011;11452;53.368;14.658;2022-07-01T09:42:38;18.27;;;16.65;;
22571;SDS011;11452;53.368;14.658;2022-07-01T09:47:43;18.03;;;16.53;;
22571;SDS011;11452;53.368;14.658;2022-07-01T09:52:48;18.57;;;17.07;;
22571;SDS011;11452;53.368;14.658;2022-07-01T09:57:54;17.27;;;15.80;;
22571;SDS011;11452;53.368;14.658;2022-07-01T10:03:00;16.50;;;15.20;;
22571;SDS011;11452;53.368;14.658;2022-07-01T10:19:34;18.20;;;16.63;;
22571;SDS011;11452;53.368;14.658;2022-07-01T10:24:32;16.17;;;14.97;;
22571;SDS011;11452;53.368;14.658;2022-07-01T10:29:38;16.53;;;15.13;;
22571;SDS011;11452;53.368;14.658;2022-07-01T10:34:44;15.48;;;14.18;;
22571;SDS011;11452;53.368;14.658;2022-07-01T10:45:06;14.95;;;13.75;;
22571;SDS011;11452;53.368;14.658;2022-07-01T10:50:14;14.23;;;13.13;;
22571;SDS011;11452;53.368;14.658;2022-07-01T10:55:25;14.85;;;13.75;;
22571;SDS011;11452;53.368;14.658;2022-07-01T11:00:32;12.78;;;11.75;;
22571;SDS011;11452;53.368;14.658;2022-07-01T11:05:40;13.35;;;12.15;;
22571;SDS011;11452;53.368;14.658;2022-07-01T11:10:51;13.98;;;12.78;;
22571;SDS011;11452;53.368;14.658;2022-07-01T11:16:01;13.40;;;12.30;;
22571;SDS011;11452;53.368;14.658;2022-07-01T11:21:08;12.25;;;11.33;;
22571;SDS011;11452;53.368;14.658;2022-07-01T11:26:29;15.32;;;11.60;;
22571;SDS011;11452;53.368;14.658;2022-07-01T11:31:30;11.70;;;10.65;;
22571;SDS011;11452;53.368;14.658;2022-07-01T11:36:36;11.60;;;10.60;;
22571;SDS011;11452;53.368;14.658;2022-07-01T11:42:04;11.55;;;10.55;;
22571;SDS011;11452;53.368;14.658;2022-07-01T11:47:11;10.45;;;9.55;;
22571;SDS011;11452;53.368;14.658;2022-07-01T11:52:19;11.63;;;10.68;;
22571;SDS011;11452;53.368;14.658;2022-07-01T11:57:26;11.88;;;10.90;;
22571;SDS011;11452;53.368;14.658;2022-07-01T12:02:33;10.58;;;9.78;;
22571;SDS011;11452;53.368;14.658;2022-07-01T12:07:38;11.18;;;10.18;;
22571;SDS011;11452;53.368;14.658;2022-07-01T12:12:44;10.18;;;9.38;;
22571;SDS011;11452;53.368;14.658;2022-07-01T12:17:50;10.90;;;10.00;;
22571;SDS011;11452;53.368;14.658;2022-07-01T12:23:18;10.60;;;9.63;;
22571;SDS011;11452;53.368;14.658;2022-07-01T12:28:25;9.83;;;9.03;;
22571;SDS011;11452;53.368;14.658;2022-07-01T12:33:33;9.98;;;9.18;;
22571;SDS011;11452;53.368;14.658;2022-07-01T12:38:40;12.97;;;11.37;;
22571;SDS011;11452;53.368;14.658;2022-07-01T12:43:46;10.50;;;9.53;;
22571;SDS011;11452;53.368;14.658;2022-07-01T12:48:52;7.10;;;6.27;;
22571;SDS011;11452;53.368;14.658;2022-07-01T12:53:58;9.50;;;5.03;;
22571;SDS011;11452;53.368;14.658;2022-07-01T12:59:04;7.30;;;4.50;;
22571;SDS011;11452;53.368;14.658;2022-07-01T13:04:10;3.50;;;3.10;;
22571;SDS011;11452;53.368;14.658;2022-07-01T13:09:15;6.73;;;6.10;;
22571;SDS011;11452;53.368;14.658;2022-07-01T13:14:21;6.93;;;6.30;;
22571;SDS011;11452;53.368;14.658;2022-07-01T13:19:27;5.47;;;4.63;;
22571;SDS011;11452;53.368;14.658;2022-07-01T13:24:32;7.27;;;4.43;;
22571;SDS011;11452;53.368;14.658;2022-07-01T13:29:38;5.70;;;4.40;;
22571;SDS011;11452;53.368;14.658;2022-07-01T13:34:44;6.53;;;3.10;;
22571;SDS011;11452;53.368;14.658;2022-07-01T13:39:50;4.17;;;3.00;;
22571;SDS011;11452;53.368;14.658;2022-07-01T13:44:55;3.80;;;3.27;;
22571;SDS011;11452;53.368;14.658;2022-07-01T13:50:01;4.47;;;3.57;;
22571;SDS011;11452;53.368;14.658;2022-07-01T13:55:07;6.37;;;4.17;;
22571;SDS011;11452;53.368;14.658;2022-07-01T14:00:13;8.47;;;7.67;;
22571;SDS011;11452;53.368;14.658;2022-07-01T14:05:20;7.03;;;6.37;;
22571;SDS011;11452;53.368;14.658;2022-07-01T14:10:26;6.80;;;6.20;;
22571;SDS011;11452;53.368;14.658;2022-07-01T14:15:32;8.07;;;6.57;;
22571;SDS011;11452;53.368;14.658;2022-07-01T14:20:40;9.17;;;6.80;;
22571;SDS011;11452;53.368;14.658;2022-07-01T14:25:48;7.47;;;6.67;;
22571;SDS011;11452;53.368;14.658;2022-07-01T14:30:54;8.47;;;7.50;;
22571;SDS011;11452;53.368;14.658;2022-07-01T14:35:59;9.53;;;7.73;;
22571;SDS011;11452;53.368;14.658;2022-07-01T14:41:06;10.50;;;9.40;;
22571;SDS011;11452;53.368;14.658;2022-07-01T14:46:12;11.40;;;9.43;;
22571;SDS011;11452;53.368;14.658;2022-07-01T14:51:19;10.63;;;9.40;;
22571;SDS011;11452;53.368;14.658;2022-07-01T14:56:25;11.20;;;10.10;;
22571;SDS011;11452;53.368;14.658;2022-07-01T15:01:30;12.93;;;10.57;;
22571;SDS011;11452;53.368;14.658;2022-07-01T15:06:37;11.77;;;10.33;;
22571;SDS011;11452;53.368;14.658;2022-07-01T15:11:42;11.77;;;10.60;;
22571;SDS011;11452;53.368;14.658;2022-07-01T15:16:49;13.47;;;10.93;;
22571;SDS011;11452;53.368;14.658;2022-07-01T15:21:56;12.50;;;10.77;;
22571;SDS011;11452;53.368;14.658;2022-07-01T15:27:02;12.37;;;10.80;;
22571;SDS011;11452;53.368;14.658;2022-07-01T15:32:09;11.60;;;10.47;;
22571;SDS011;11452;53.368;14.658;2022-07-01T15:37:16;13.00;;;11.00;;
22571;SDS011;11452;53.368;14.658;2022-07-01T15:42:21;12.93;;;11.17;;
22571;SDS011;11452;53.368;14.658;2022-07-01T15:47:27;12.63;;;11.07;;
22571;SDS011;11452;53.368;14.658;2022-07-01T15:52:50;12.07;;;10.83;;
22571;SDS011;11452;53.368;14.658;2022-07-01T15:57:56;13.97;;;12.33;;
22571;SDS011;11452;53.368;14.658;2022-07-01T16:03:02;13.83;;;12.37;;
22571;SDS011;11452;53.368;14.658;2022-07-01T16:08:11;14.30;;;12.80;;
22571;SDS011;11452;53.368;14.658;2022-07-01T16:13:18;14.17;;;12.77;;
22571;SDS011;11452;53.368;14.658;2022-07-01T16:18:25;14.20;;;12.60;;
22571;SDS011;11452;53.368;14.658;2022-07-01T16:23:34;10.10;;;9.00;;
22571;SDS011;11452;53.368;14.658;2022-07-01T16:28:40;7.40;;;6.47;;
22571;SDS011;11452;53.368;14.658;2022-07-01T16:33:46;4.90;;;4.43;;
22571;SDS011;11452;53.368;14.658;2022-07-01T16:38:59;3.63;;;3.33;;
22571;SDS011;11452;53.368;14.658;2022-07-01T16:44:06;3.20;;;3.00;;
22571;SDS011;11452;53.368;14.658;2022-07-01T16:49:20;4.33;;;3.20;;
22571;SDS011;11452;53.368;14.658;2022-07-01T16:54:25;3.73;;;3.53;;
22571;SDS011;11452;53.368;14.658;2022-07-01T16:59:33;4.43;;;4.03;;
22571;SDS011;11452;53.368;14.658;2022-07-01T17:04:39;3.37;;;3.07;;
22571;SDS011;11452;53.368;14.658;2022-07-01T17:09:47;2.57;;;2.43;;
22571;SDS011;11452;53.368;14.658;2022-07-01T17:14:56;3.60;;;3.30;;
22571;SDS011;11452;53.368;14.658;2022-07-01T17:20:07;2.97;;;2.70;;
22571;SDS011;11452;53.368;14.658;2022-07-01T17:25:11;2.40;;;2.30;;
22571;SDS011;11452;53.368;14.658;2022-07-01T17:30:22;2.30;;;2.10;;
22571;SDS011;11452;53.368;14.658;2022-07-01T17:35:30;3.00;;;2.80;;
22571;SDS011;11452;53.368;14.658;2022-07-01T17:40:42;3.67;;;3.33;;
22571;SDS011;11452;53.368;14.658;2022-07-01T17:45:47;4.83;;;4.53;;
22571;SDS011;11452;53.368;14.658;2022-07-01T17:50:53;4.10;;;3.70;;
22571;SDS011;11452;53.368;14.658;2022-07-01T17:56:00;3.60;;;3.40;;
22571;SDS011;11452;53.368;14.658;2022-07-01T18:01:06;3.20;;;2.97;;
22571;SDS011;11452;53.368;14.658;2022-07-01T18:06:15;3.07;;;2.17;;
22571;SDS011;11452;53.368;14.658;2022-07-01T18:11:22;3.40;;;2.80;;
22571;SDS011;11452;53.368;14.658;2022-07-01T18:22:33;3.70;;;3.40;;
22571;SDS011;11452;53.368;14.658;2022-07-01T18:27:29;4.57;;;3.93;;
22571;SDS011;11452;53.368;14.658;2022-07-01T18:32:38;5.62;;;5.12;;
22571;SDS011;11452;53.368;14.658;2022-07-01T18:37:50;4.23;;;3.83;;
22571;SDS011;11452;53.368;14.658;2022-07-01T18:42:59;5.53;;;4.50;;
22571;SDS011;11452;53.368;14.658;2022-07-01T18:48:05;4.80;;;4.33;;
22571;SDS011;11452;53.368;14.658;2022-07-01T18:53:11;4.00;;;3.60;;
22571;SDS011;11452;53.368;14.658;2022-07-01T18:58:16;4.10;;;3.70;;
22571;SDS011;11452;53.368;14.658;2022-07-01T19:03:22;5.77;;;5.33;;
22571;SDS011;11452;53.368;14.658;2022-07-01T19:08:28;5.27;;;4.77;;
22571;SDS011;11452;53.368;14.658;2022-07-01T19:13:35;3.23;;;3.03;;
22571;SDS011;11452;53.368;14.658;2022-07-01T19:18:40;3.03;;;2.33;;
22571;SDS011;11452;53.368;14.658;2022-07-01T19:23:46;3.40;;;2.43;;
22571;SDS011;11452;53.368;14.658;2022-07-01T19:28:51;4.53;;;3.00;;
22571;SDS011;11452;53.368;14.658;2022-07-01T19:33:57;4.37;;;2.53;;
22571;SDS011;11452;53.368;14.658;2022-07-01T19:39:03;2.87;;;1.80;;
22571;SDS011;11452;53.368;14.658;2022-07-01T19:44:09;2.97;;;1.87;;
22571;SDS011;11452;53.368;14.658;2022-07-01T19:49:15;2.30;;;2.10;;
22571;SDS011;11452;53.368;14.658;2022-07-01T19:54:21;2.30;;;2.10;;
22571;SDS011;11452;53.368;14.658;2022-07-01T19:59:29;2.77;;;2.17;;
22571;SDS011;11452;53.368;14.658;2022-07-01T20:04:34;3.47;;;3.10;;
22571;SDS011;11452;53.368;14.658;2022-07-01T20:09:43;2.03;;;1.93;;
22571;SDS011;11452;53.368;14.658;2022-07-01T20:14:50;3.10;;;1.90;;
22571;SDS011;11452;53.368;14.658;2022-07-01T20:19:56;2.30;;;1.90;;
22571;SDS011;11452;53.368;14.658;2022-07-01T20:25:13;2.47;;;1.90;;
22571;SDS011;11452;53.368;14.658;2022-07-01T20:30:13;2.97;;;1.93;;
22571;SDS011;11452;53.368;14.658;2022-07-01T20:35:19;3.00;;;2.40;;
22571;SDS011;11452;53.368;14.658;2022-07-01T20:40:25;3.67;;;2.50;;
22571;SDS011;11452;53.368;14.658;2022-07-01T20:45:31;3.47;;;2.10;;
22571;SDS011;11452;53.368;14.658;2022-07-01T20:50:36;3.80;;;1.97;;
22571;SDS011;11452;53.368;14.658;2022-07-01T20:55:42;3.77;;;2.03;;
22571;SDS011;11452;53.368;14.658;2022-07-01T21:00:48;2.43;;;2.23;;
22571;SDS011;11452;53.368;14.658;2022-07-01T21:05:54;3.83;;;1.93;;
22571;SDS011;11452;53.368;14.658;2022-07-01T21:10:59;2.53;;;1.73;;
22571;SDS011;11452;53.368;14.658;2022-07-01T21:16:05;4.93;;;2.00;;
22571;SDS011;11452;53.368;14.658;2022-07-01T21:21:11;5.07;;;2.30;;
22571;SDS011;11452;53.368;14.658;2022-07-01T21:26:17;4.20;;;2.27;;
22571;SDS011;11452;53.368;14.658;2022-07-01T21:31:22;5.37;;;3.00;;
22571;SDS011;11452;53.368;14.658;2022-07-01T21:36:28;3.13;;;2.37;;
22571;SDS011;11452;53.368;14.658;2022-07-01T21:41:36;2.70;;;2.50;;
22571;SDS011;11452;53.368;14.658;2022-07-01T21:46:42;4.53;;;2.53;;
22571;SDS011;11452;53.368;14.658;2022-07-01T21:51:50;3.10;;;2.37;;
22571;SDS011;11452;53.368;14.658;2022-07-01T21:56:57;3.07;;;2.77;;
22571;SDS011;11452;53.368;14.658;2022-07-01T22:02:04;3.93;;;3.10;;
22571;SDS011;11452;53.368;14.658;2022-07-01T22:07:11;4.50;;;3.03;;
22571;SDS011;11452;53.368;14.658;2022-07-01T22:12:16;3.80;;;3.03;;
22571;SDS011;11452;53.368;14.658;2022-07-01T22:17:25;4.30;;;3.43;;
22571;SDS011;11452;53.368;14.658;2022-07-01T22:22:37;3.53;;;3.23;;
22571;SDS011;11452;53.368;14.658;2022-07-01T22:27:43;5.73;;;3.70;;
22571;SDS011;11452;53.368;14.658;2022-07-01T22:32:51;4.17;;;3.60;;
22571;SDS011;11452;53.368;14.658;2022-07-01T22:37:59;6.10;;;3.90;;
22571;SDS011;11452;53.368;14.658;2022-07-01T22:43:07;4.77;;;3.83;;
22571;SDS011;11452;53.368;14.658;2022-07-01T22:48:18;5.00;;;4.60;;
22571;SDS011;11452;53.368;14.658;2022-07-01T22:53:30;5.10;;;4.57;;
22571;SDS011;11452;53.368;14.658;2022-07-01T22:58:36;5.57;;;5.03;;
22571;SDS011;11452;53.368;14.658;2022-07-01T23:03:55;6.50;;;5.40;;
22571;SDS011;11452;53.368;14.658;2022-07-01T23:09:04;6.30;;;4.90;;
22571;SDS011;11452;53.368;14.658;2022-07-01T23:14:19;5.90;;;5.17;;
22571;SDS011;11452;53.368;14.658;2022-07-01T23:19:43;6.80;;;5.50;;
22571;SDS011;11452;53.368;14.658;2022-07-01T23:24:51;5.50;;;4.93;;
22571;SDS011;11452;53.368;14.658;2022-07-01T23:29:59;6.13;;;4.93;;
22571;SDS011;11452;53.368;14.658;2022-07-01T23:35:06;6.00;;;4.43;;
22571;SDS011;11452;53.368;14.658;2022-07-01T23:40:13;4.73;;;3.83;;
22571;SDS011;11452;53.368;14.658;2022-07-01T23:45:20;3.77;;;3.27;;
22571;SDS011;11452;53.368;14.658;2022-07-01T23:50:25;4.47;;;4.07;;
22571;SDS011;11452;53.368;14.658;2022-07-01T23:55:31;3.30;;;3.00;;
